Time;durP1;ratioP1;P1;durP2;ratioP2;P2;SDS_P1;SDS_P2;PMS_P1;PMS_P2;Temp;Humidity;BMP_temperature;BMP_pressure;BME280_temperature;BME280_humidity;BME280_pressure;Samples;Min_cycle;Max_cycle;Signal;HPM_P1;HPM_P2
2022/06/17 00:02:19;;;;;;;1.43;1.10;;;23.90;43.40;;;;;;5045200;28;20517;-77
2022/06/17 00:04:49;;;;;;;1.40;1.30;;;23.80;43.60;;;;;;5044931;28;20471;-77
2022/06/17 00:07:17;;;;;;;1.50;1.40;;;23.80;42.60;;;;;;5047817;28;20969;-77
2022/06/17 00:09:45;;;;;;;2.37;1.30;;;23.80;42.00;;;;;;5042866;28;21119;-76
2022/06/17 00:12:15;;;;;;;1.50;1.30;;;23.70;42.10;;;;;;5039870;28;20456;-76
2022/06/17 00:17:30;;;;;;;1.63;1.30;;;23.70;40.80;;;;;;5040157;28;20455;-76
2022/06/17 00:19:59;;;;;;;1.33;1.23;;;23.70;41.20;;;;;;5036741;28;20479;-76
2022/06/17 00:22:28;;;;;;;2.00;1.70;;;23.60;40.10;;;;;;5045003;28;20459;-76
2022/06/17 00:24:56;;;;;;;1.73;1.40;;;23.60;39.40;;;;;;5043187;28;20486;-76
2022/06/17 00:27:24;;;;;;;1.93;1.43;;;23.60;39.20;;;;;;5041144;28;20455;-77
2022/06/17 00:29:52;;;;;;;4.53;2.70;;;23.60;39.50;;;;;;5038944;28;20464;-76
2022/06/17 00:32:20;;;;;;;6.63;4.23;;;23.50;38.70;;;;;;5042813;28;20529;-76
2022/06/17 00:34:48;;;;;;;7.53;4.97;;;23.50;39.60;;;;;;5041712;28;20470;-77
2022/06/17 00:37:24;;;;;;;5.90;4.20;;;23.40;39.30;;;;;;5041028;28;20451;-77
2022/06/17 00:39:52;;;;;;;3.53;3.23;;;23.40;37.50;;;;;;5045522;28;20510;-76
2022/06/17 00:42:21;;;;;;;3.00;2.23;;;23.40;39.90;;;;;;5045454;28;20455;-76
2022/06/17 00:44:55;;;;;;;3.57;2.53;;;23.40;40.00;;;;;;5043822;28;20476;-77
2022/06/17 00:47:35;;;;;;;2.20;2.00;;;23.30;38.60;;;;;;5046481;28;20452;-76
2022/06/17 00:50:13;;;;;;;3.03;2.20;;;23.30;37.10;;;;;;5044394;28;20473;-76
2022/06/17 00:52:48;;;;;;;3.00;2.17;;;23.30;36.80;;;;;;5044465;28;20877;-77
2022/06/17 00:55:28;;;;;;;3.70;2.30;;;23.20;37.30;;;;;;5042136;28;20485;-75
2022/06/17 00:57:57;;;;;;;3.33;2.10;;;23.20;37.50;;;;;;5044295;28;20447;-76
2022/06/17 01:00:27;;;;;;;3.80;1.80;;;23.20;36.60;;;;;;5049440;28;20476;-75
2022/06/17 01:03:01;;;;;;;2.00;1.50;;;23.20;36.60;;;;;;5046940;28;20451;-74
2022/06/17 01:05:35;;;;;;;2.70;2.17;;;23.20;36.20;;;;;;5048063;28;20533;-76
2022/06/17 01:08:13;;;;;;;4.70;1.83;;;23.20;36.20;;;;;;5042267;28;20589;-76
2022/06/17 01:10:44;;;;;;;1.63;1.50;;;23.10;36.90;;;;;;5040484;28;20947;-76
2022/06/17 01:13:12;;;;;;;2.80;2.60;;;23.10;37.00;;;;;;5043289;28;20454;-76
2022/06/17 01:15:43;;;;;;;2.70;1.57;;;23.00;36.30;;;;;;5044929;28;20474;-76
2022/06/17 01:18:12;;;;;;;1.27;1.17;;;23.00;35.50;;;;;;5043540;28;21052;-76
2022/06/17 01:20:42;;;;;;;1.43;1.30;;;23.00;35.30;;;;;;5043642;28;20475;-77
2022/06/17 01:23:14;;;;;;;1.50;1.40;;;23.00;35.70;;;;;;5041209;28;20452;-75
2022/06/17 01:25:44;;;;;;;3.33;1.30;;;23.00;35.50;;;;;;5037753;28;20466;-75
2022/06/17 01:28:15;;;;;;;1.50;1.37;;;22.90;35.00;;;;;;5044083;28;20461;-76
2022/06/17 01:30:45;;;;;;;1.50;1.40;;;22.80;48.40;;;;;;5041398;28;20818;-76
2022/06/17 01:33:18;;;;;;;1.30;1.20;;;22.80;34.20;;;;;;5044295;28;20470;-76
2022/06/17 01:35:51;;;;;;;1.20;1.10;;;22.80;34.50;;;;;;5040966;28;20936;-76
2022/06/17 01:38:22;;;;;;;1.10;1.10;;;22.80;34.00;;;;;;5043218;28;20504;-77
2022/06/17 01:40:51;;;;;;;1.30;1.17;;;22.80;34.50;;;;;;5040486;28;20470;-77
2022/06/17 01:43:22;;;;;;;1.53;1.43;;;22.80;34.90;;;;;;5041258;28;20464;-77
2022/06/17 01:45:55;;;;;;;1.30;1.20;;;22.80;33.40;;;;;;5042566;28;20896;-77
2022/06/17 01:48:26;;;;;;;1.20;1.10;;;22.80;34.20;;;;;;5043511;28;20451;-77
2022/06/17 01:50:57;;;;;;;1.70;1.60;;;22.70;34.20;;;;;;5039076;28;20463;-76
2022/06/17 01:53:31;;;;;;;1.53;1.43;;;22.70;34.40;;;;;;5041753;28;21300;-76
2022/06/17 01:56:04;;;;;;;1.97;1.30;;;22.70;34.60;;;;;;5043189;28;20475;-76
2022/06/17 01:58:34;;;;;;;1.60;1.20;;;22.60;33.90;;;;;;5043877;28;20466;-76
2022/06/17 02:01:05;;;;;;;1.30;1.20;;;22.50;33.50;;;;;;5040350;28;20998;-76
2022/06/17 02:03:36;;;;;;;1.37;1.27;;;22.50;32.90;;;;;;5046668;28;20464;-77
2022/06/17 02:06:12;;;;;;;1.37;1.27;;;22.50;33.50;;;;;;5042411;28;20548;-77
2022/06/17 02:08:41;;;;;;;1.40;1.30;;;22.40;33.50;;;;;;5044159;28;20529;-77
2022/06/17 02:11:10;;;;;;;1.90;1.30;;;22.40;34.30;;;;;;5036464;28;20475;-76
2022/06/17 02:13:40;;;;;;;1.60;1.47;;;22.40;35.60;;;;;;5043538;28;20604;-77
2022/06/17 02:16:09;;;;;;;1.70;1.57;;;22.40;34.00;;;;;;5039234;28;20563;-77
2022/06/17 02:18:39;;;;;;;1.70;1.37;;;22.40;32.50;;;;;;5043352;28;20515;-75
2022/06/17 02:21:10;;;;;;;2.20;1.57;;;22.30;31.90;;;;;;5042422;28;20528;-75
2022/06/17 02:23:38;;;;;;;1.80;1.60;;;22.30;32.40;;;;;;5041755;28;20593;-75
2022/06/17 02:26:09;;;;;;;1.70;1.30;;;22.30;34.00;;;;;;5039164;28;20533;-75
2022/06/17 02:28:39;;;;;;;1.50;1.40;;;22.30;32.60;;;;;;5043060;28;20462;-75
2022/06/17 02:31:08;;;;;;;2.07;1.70;;;22.30;33.30;;;;;;5043627;28;20855;-75
2022/06/17 02:33:38;;;;;;;1.60;1.50;;;22.30;33.40;;;;;;5036782;28;20490;-75
2022/06/17 02:36:13;;;;;;;1.50;1.40;;;22.30;33.50;;;;;;5043045;28;20603;-75
2022/06/17 02:38:42;;;;;;;1.40;1.30;;;22.20;33.30;;;;;;5043153;28;20457;-76
2022/06/17 02:41:17;;;;;;;1.50;1.40;;;22.20;32.50;;;;;;5043849;28;20475;-78
2022/06/17 02:43:49;;;;;;;1.40;1.30;;;22.20;32.40;;;;;;5057001;28;21444;-76
2022/06/17 02:46:23;;;;;;;2.73;1.50;;;22.20;32.50;;;;;;5042815;28;21003;-76
2022/06/17 02:48:54;;;;;;;3.43;1.30;;;22.20;31.90;;;;;;5036069;28;20605;-75
2022/06/17 02:51:24;;;;;;;1.93;1.83;;;22.20;31.50;;;;;;5038000;28;20484;-76
2022/06/17 02:53:53;;;;;;;2.50;1.23;;;22.20;32.10;;;;;;5044395;28;20562;-77
2022/06/17 02:56:26;;;;;;;1.43;1.33;;;22.10;33.00;;;;;;5043384;28;20471;-76
2022/06/17 02:59:06;;;;;;;1.93;1.30;;;22.10;31.80;;;;;;5042302;28;20450;-75
2022/06/17 03:01:37;;;;;;;3.27;1.73;;;22.10;31.20;;;;;;5040803;28;20472;-76
2022/06/17 03:04:12;;;;;;;1.17;1.10;;;22.00;30.80;;;;;;5038644;28;20451;-75
2022/06/17 03:06:42;;;;;;;1.80;1.70;;;22.00;30.60;;;;;;5041928;28;21109;-75
2022/06/17 03:09:20;;;;;;;2.60;1.30;;;22.00;31.10;;;;;;5041328;28;20441;-76
2022/06/17 03:11:53;;;;;;;3.30;1.70;;;22.00;31.30;;;;;;5043711;28;20969;-76
2022/06/17 03:14:23;;;;;;;1.77;1.67;;;21.90;32.50;;;;;;5039242;28;20463;-76
2022/06/17 03:16:53;;;;;;;2.10;1.20;;;21.90;45.70;;;;;;5042120;28;20480;-76
2022/06/17 03:19:23;;;;;;;1.53;1.30;;;21.80;31.10;;;;;;5040824;28;20448;-76
2022/06/17 03:21:52;;;;;;;5.47;1.60;;;21.70;30.10;;;;;;5042651;28;20533;-76
2022/06/17 03:24:26;;;;;;;2.60;1.20;;;21.70;33.00;;;;;;5039196;28;20457;-76
2022/06/17 03:27:02;;;;;;;3.30;1.60;;;21.70;31.80;;;;;;5040055;28;20527;-76
2022/06/17 03:29:33;;;;;;;1.50;1.40;;;21.60;30.30;;;;;;5038580;28;20445;-76
2022/06/17 03:32:06;;;;;;;1.60;1.50;;;21.60;29.90;;;;;;5041385;28;21125;-75
2022/06/17 03:34:38;;;;;;;4.10;1.30;;;21.60;30.80;;;;;;5040823;28;20452;-75
2022/06/17 03:37:11;;;;;;;1.47;1.37;;;21.60;31.10;;;;;;5041111;28;20486;-75
2022/06/17 03:39:42;;;;;;;1.80;1.67;;;21.50;29.80;;;;;;5043638;28;20855;-76
2022/06/17 03:42:18;;;;;;;2.13;1.33;;;21.50;31.20;;;;;;5040595;28;20483;-75
2022/06/17 03:44:53;;;;;;;1.67;1.57;;;21.50;30.70;;;;;;5040239;28;20942;-76
2022/06/17 03:47:26;;;;;;;1.87;1.20;;;21.50;30.10;;;;;;5040562;28;20447;-76
2022/06/17 03:49:58;;;;;;;1.77;1.67;;;21.50;30.40;;;;;;5050720;28;20452;-75
2022/06/17 03:52:36;;;;;;;1.60;1.50;;;21.50;30.00;;;;;;5039153;28;20962;-76
2022/06/17 03:55:06;;;;;;;1.50;1.40;;;21.50;29.40;;;;;;5034100;28;21611;-76
2022/06/17 03:57:37;;;;;;;2.07;1.40;;;21.40;29.80;;;;;;5044147;28;20471;-75
2022/06/17 04:00:07;;;;;;;2.83;1.30;;;21.40;30.80;;;;;;5035026;28;20451;-76
2022/06/17 04:02:35;;;;;;;2.60;1.30;;;21.40;30.90;;;;;;5039671;28;20512;-77
2022/06/17 04:05:04;;;;;;;1.40;1.30;;;21.40;32.20;;;;;;5042214;28;20577;-75
2022/06/17 04:07:32;;;;;;;2.30;1.63;;;21.40;31.80;;;;;;5036887;28;20435;-76
2022/06/17 04:10:01;;;;;;;1.90;1.60;;;21.40;34.30;;;;;;5047041;28;21034;-75
2022/06/17 04:12:34;;;;;;;2.83;1.80;;;21.50;34.20;;;;;;5051177;28;20947;-77
2022/06/17 04:15:14;;;;;;;1.63;1.20;;;21.40;33.60;;;;;;5049854;28;20467;-76
2022/06/17 04:17:45;;;;;;;1.93;1.43;;;21.40;32.70;;;;;;5046646;28;20431;-77
2022/06/17 04:20:30;;;;;;;2.43;1.57;;;21.30;31.50;;;;;;5046066;28;20443;-77
2022/06/17 04:23:12;;;;;;;1.60;1.50;;;21.40;32.20;;;;;;5041623;28;20831;-77
2022/06/17 04:25:45;;;;;;;3.07;1.40;;;21.40;32.50;;;;;;5040407;28;21231;-76
2022/06/17 04:28:18;;;;;;;2.20;1.50;;;21.40;31.80;;;;;;5041179;28;20460;-77
2022/06/17 04:30:51;;;;;;;1.63;1.53;;;21.40;32.90;;;;;;5044685;28;20444;-77
2022/06/17 04:33:23;;;;;;;1.47;1.37;;;21.30;33.10;;;;;;5040279;28;20487;-77
2022/06/17 04:35:55;;;;;;;1.50;1.40;;;21.40;32.90;;;;;;5047416;28;20483;-76
2022/06/17 04:38:24;;;;;;;2.07;1.30;;;21.40;33.30;;;;;;5043067;28;20447;-77
2022/06/17 04:40:55;;;;;;;2.73;1.90;;;21.40;34.40;;;;;;5045178;28;21051;-75
2022/06/17 04:43:30;;;;;;;1.70;1.50;;;21.50;35.60;;;;;;5043461;28;20846;-76
2022/06/17 04:46:04;;;;;;;1.80;1.70;;;21.40;35.20;;;;;;5043714;28;20898;-75
2022/06/17 04:48:33;;;;;;;1.60;1.50;;;21.40;49.50;;;;;;5042749;28;20465;-76
2022/06/17 04:51:02;;;;;;;2.43;1.90;;;21.40;38.10;;;;;;5042295;28;20851;-75
2022/06/17 04:53:31;;;;;;;1.60;1.50;;;21.40;37.10;;;;;;5040146;28;20463;-76
2022/06/17 04:56:00;;;;;;;3.67;1.80;;;21.40;36.20;;;;;;5037677;28;20479;-75
2022/06/17 04:58:30;;;;;;;3.30;1.60;;;21.40;37.10;;;;;;5041799;28;20959;-75
2022/06/17 05:00:59;;;;;;;2.93;1.70;;;21.40;38.10;;;;;;5032865;28;20487;-76
2022/06/17 05:03:30;;;;;;;2.10;1.50;;;21.50;38.00;;;;;;5039723;28;20813;-75
2022/06/17 05:06:01;;;;;;;3.60;1.43;;;21.50;37.00;;;;;;5042571;28;20484;-74
2022/06/17 05:08:33;;;;;;;2.07;1.57;;;21.50;37.90;;;;;;5043235;28;20477;-74
2022/06/17 05:11:04;;;;;;;2.30;1.63;;;21.50;49.60;;;;;;5040031;28;20536;-74
2022/06/17 05:13:36;;;;;;;2.30;1.57;;;21.50;37.00;;;;;;5046881;28;20536;-75
2022/06/17 05:16:12;;;;;;;3.43;1.60;;;21.50;36.00;;;;;;5036634;28;20472;-75
2022/06/17 05:18:40;;;;;;;1.90;1.53;;;21.60;37.60;;;;;;5042315;28;20814;-75
2022/06/17 05:21:17;;;;;;;1.40;1.30;;;21.60;38.90;;;;;;5051077;28;20479;-75
2022/06/17 05:23:46;;;;;;;1.70;1.60;;;21.50;37.40;;;;;;5044860;28;20490;-75
2022/06/17 05:26:14;;;;;;;1.50;1.40;;;21.50;38.30;;;;;;5039338;28;20464;-74
2022/06/17 05:28:42;;;;;;;2.20;1.63;;;21.60;41.10;;;;;;5045736;28;20459;-75
2022/06/17 05:31:16;;;;;;;6.07;1.50;;;21.60;40.10;;;;;;5040917;28;20540;-75
2022/06/17 05:33:44;;;;;;;1.57;1.43;;;21.70;40.10;;;;;;5044740;28;20470;-75
2022/06/17 05:36:12;;;;;;;1.83;1.50;;;21.80;42.30;;;;;;5046103;28;20475;-76
2022/06/17 05:38:40;;;;;;;1.70;1.60;;;21.80;41.40;;;;;;5042821;28;20867;-75
2022/06/17 05:41:11;;;;;;;1.40;1.30;;;21.90;42.20;;;;;;5041857;28;20600;-75
2022/06/17 05:43:40;;;;;;;2.33;1.50;;;21.90;41.60;;;;;;5044987;28;20518;-74
2022/06/17 05:46:09;;;;;;;1.40;1.30;;;22.00;43.20;;;;;;5046205;28;20531;-74
2022/06/17 05:48:39;;;;;;;1.30;1.20;;;22.00;44.30;;;;;;5041052;28;20531;-75
2022/06/17 05:51:07;;;;;;;1.50;1.33;;;22.00;44.90;;;;;;5044940;28;20498;-75
2022/06/17 05:53:35;;;;;;;1.80;1.30;;;22.10;45.50;;;;;;5042534;28;20485;-74
2022/06/17 05:56:04;;;;;;;1.70;1.40;;;22.10;46.50;;;;;;5038438;28;20479;-75
2022/06/17 05:58:32;;;;;;;1.40;1.30;;;22.20;47.20;;;;;;5042350;28;20459;-74
2022/06/17 06:01:00;;;;;;;1.87;1.30;;;22.20;48.10;;;;;;5046811;28;21209;-72
2022/06/17 06:03:30;;;;;;;1.53;1.40;;;22.20;46.40;;;;;;5045980;28;20486;-75
2022/06/17 06:06:01;;;;;;;1.30;1.20;;;22.30;47.90;;;;;;5043752;28;21008;-75
2022/06/17 06:08:29;;;;;;;2.23;2.03;;;22.30;48.90;;;;;;5041772;28;20452;-75
2022/06/17 06:10:57;;;;;;;1.43;1.33;;;22.40;50.30;;;;;;5045734;28;20470;-76
2022/06/17 06:13:25;;;;;;;2.60;2.07;;;22.40;50.40;;;;;;5046548;28;20460;-76
2022/06/17 06:15:55;;;;;;;3.40;1.40;;;22.40;50.20;;;;;;5043160;28;20474;-75
2022/06/17 06:18:27;;;;;;;1.30;1.20;;;22.50;50.30;;;;;;5045078;28;20797;-76
2022/06/17 06:20:55;;;;;;;1.30;1.20;;;22.60;50.30;;;;;;5039682;28;20968;-75
2022/06/17 06:23:25;;;;;;;1.83;1.20;;;22.60;54.10;;;;;;5043435;28;20474;-76
2022/06/17 06:25:53;;;;;;;1.80;1.27;;;22.60;53.10;;;;;;5044513;28;20474;-76
2022/06/17 06:28:23;;;;;;;1.47;1.37;;;22.70;54.50;;;;;;5049561;28;20459;-75
2022/06/17 06:30:53;;;;;;;1.30;1.20;;;22.80;70.50;;;;;;5048284;28;21010;-76
2022/06/17 06:33:22;;;;;;;2.20;1.40;;;22.80;54.50;;;;;;5047934;28;20451;-76
2022/06/17 06:35:50;;;;;;;1.93;1.83;;;22.80;56.20;;;;;;5047984;28;20475;-76
2022/06/17 06:38:18;;;;;;;3.17;1.60;;;22.90;55.70;;;;;;5049500;28;20458;-76
2022/06/17 06:40:47;;;;;;;1.53;1.40;;;22.90;58.00;;;;;;5044276;28;20459;-75
2022/06/17 06:43:18;;;;;;;1.50;1.40;;;23.00;58.50;;;;;;5042851;28;20478;-76
2022/06/17 06:45:48;;;;;;;1.50;1.40;;;23.00;57.10;;;;;;5041284;28;20467;-76
2022/06/17 06:48:19;;;;;;;2.77;1.70;;;23.00;58.20;;;;;;5041552;28;20447;-78
2022/06/17 06:50:47;;;;;;;1.50;1.40;;;23.10;59.00;;;;;;5038644;28;21028;-77
2022/06/17 06:53:15;;;;;;;1.90;1.80;;;23.10;59.60;;;;;;5048583;28;20514;-76
2022/06/17 06:55:44;;;;;;;1.70;1.60;;;23.10;59.40;;;;;;5045674;28;20998;-76
2022/06/17 06:58:16;;;;;;;1.53;1.43;;;23.20;58.40;;;;;;5041483;28;21114;-76
2022/06/17 07:00:46;;;;;;;3.33;1.80;;;23.30;57.50;;;;;;5041316;28;20451;-78
2022/06/17 07:03:15;;;;;;;1.60;1.50;;;23.30;59.20;;;;;;5042328;28;20463;-77
2022/06/17 07:05:48;;;;;;;1.40;1.30;;;23.30;60.00;;;;;;5041623;28;20566;-77
2022/06/17 07:08:18;;;;;;;1.50;1.40;;;23.40;59.60;;;;;;5041169;28;20510;-77
2022/06/17 07:10:48;;;;;;;1.97;1.57;;;23.50;60.30;;;;;;5041518;28;20547;-77
2022/06/17 07:13:19;;;;;;;1.57;1.47;;;23.60;61.00;;;;;;5048449;28;20535;-78
2022/06/17 07:15:47;;;;;;;1.77;1.50;;;23.60;62.90;;;;;;5047939;28;20475;-77
2022/06/17 07:18:18;;;;;;;2.50;1.53;;;23.60;62.10;;;;;;5039957;28;20454;-77
2022/06/17 07:20:49;;;;;;;1.80;1.37;;;23.70;63.60;;;;;;5049435;28;20455;-77
2022/06/17 07:23:20;;;;;;;2.30;1.40;;;23.70;64.40;;;;;;5044687;28;20472;-76
2022/06/17 07:25:48;;;;;;;2.13;1.70;;;23.80;66.90;;;;;;5047842;28;20517;-77
2022/06/17 07:28:26;;;;;;;1.40;1.30;;;23.70;64.80;;;;;;5045750;28;20466;-77
2022/06/17 07:30:56;;;;;;;2.80;2.33;;;23.70;63.80;;;;;;5052890;28;20462;-77
2022/06/17 07:33:27;;;;;;;2.30;1.50;;;23.80;64.00;;;;;;5043101;28;20455;-77
2022/06/17 07:35:59;;;;;;;1.73;1.63;;;23.80;63.00;;;;;;5049230;28;20470;-77
2022/06/17 07:41:19;;;;;;;1.63;1.30;;;23.90;64.60;;;;;;5047658;28;20463;-76
2022/06/17 07:43:49;;;;;;;2.80;1.60;;;23.80;64.30;;;;;;5043819;28;20467;-79
2022/06/17 07:46:22;;;;;;;5.63;2.10;;;23.90;67.20;;;;;;5051924;28;20472;-77
2022/06/17 07:48:50;;;;;;;1.90;1.80;;;23.90;65.00;;;;;;5065136;28;20464;-77
2022/06/17 07:51:19;;;;;;;2.30;1.40;;;23.90;64.60;;;;;;5045280;28;20553;-77
2022/06/17 07:53:47;;;;;;;3.10;1.70;;;23.90;67.20;;;;;;5057409;28;20925;-78
2022/06/17 07:56:15;;;;;;;1.73;1.60;;;24.00;69.40;;;;;;5044737;28;20499;-77
2022/06/17 07:58:44;;;;;;;1.87;1.50;;;24.00;69.50;;;;;;5043510;28;21241;-76
2022/06/17 08:01:15;;;;;;;2.97;1.57;;;24.10;69.70;;;;;;5043913;28;20490;-78
2022/06/17 08:03:43;;;;;;;2.10;1.70;;;24.10;68.50;;;;;;5046648;28;20487;-76
2022/06/17 08:06:14;;;;;;;1.50;1.40;;;24.10;69.20;;;;;;5045251;28;20508;-77
2022/06/17 08:08:42;;;;;;;2.20;1.37;;;24.10;69.20;;;;;;5038196;28;20955;-76
2022/06/17 08:11:11;;;;;;;2.57;1.50;;;24.20;66.50;;;;;;5049155;28;20452;-76
2022/06/17 08:13:40;;;;;;;2.00;1.80;;;24.10;65.60;;;;;;5044177;28;20451;-76
2022/06/17 08:16:10;;;;;;;1.77;1.63;;;24.20;68.70;;;;;;5045642;28;20447;-75
2022/06/17 08:18:40;;;;;;;2.10;1.87;;;24.20;70.20;;;;;;5050620;28;20310;-76
2022/06/17 08:21:10;;;;;;;2.00;1.60;;;24.30;70.00;;;;;;5042500;28;21075;-80
2022/06/17 08:23:39;;;;;;;1.93;1.50;;;24.30;71.50;;;;;;5045953;28;20954;-80
2022/06/17 08:26:08;;;;;;;1.70;1.60;;;24.40;73.60;;;;;;5039230;28;20576;-80
2022/06/17 08:28:36;;;;;;;2.87;1.73;;;24.40;71.60;;;;;;5047941;28;20451;-80
2022/06/17 08:31:04;;;;;;;3.87;1.97;;;24.40;71.70;;;;;;5046005;28;20458;-80
2022/06/17 08:33:32;;;;;;;3.47;1.60;;;24.50;71.10;;;;;;5044391;28;20517;-80
2022/06/17 08:36:20;;;;;;;2.13;1.70;;;24.50;69.70;;;;;;5045566;28;20475;-81
2022/06/17 08:38:52;;;;;;;1.97;1.60;;;24.70;66.80;;;;;;5044323;28;20965;-80
2022/06/17 08:41:27;;;;;;;2.23;1.40;;;24.70;68.50;;;;;;5045418;28;20444;-80
2022/06/17 08:44:28;;;;;;;2.07;1.90;;;24.70;70.10;;;;;;5043702;28;20482;-80
2022/06/17 08:47:12;;;;;;;1.60;1.50;;;24.70;71.70;;;;;;5052695;28;21004;-79
2022/06/17 08:49:59;;;;;;;1.57;1.47;;;24.80;73.90;;;;;;5051675;28;20482;-79
2022/06/17 08:52:49;;;;;;;1.37;1.20;;;24.80;74.50;;;;;;5046158;28;20479;-74
2022/06/17 08:55:28;;;;;;;3.17;1.97;;;24.80;75.00;;;;;;5042684;28;21014;-74
2022/06/17 08:58:04;;;;;;;2.77;1.83;;;24.80;76.80;;;;;;5050188;28;21166;-74
2022/06/17 09:00:40;;;;;;;1.60;1.50;;;24.90;77.00;;;;;;5039646;28;20563;-74
2022/06/17 09:03:24;;;;;;;1.90;1.80;;;24.90;74.60;;;;;;5039863;28;20452;-74
2022/06/17 09:06:01;;;;;;;1.90;1.57;;;24.90;92.10;;;;;;5042649;28;20483;-73
2022/06/17 09:08:54;;;;;;;1.80;1.70;;;25.00;75.70;;;;;;5052695;28;20501;-74
2022/06/17 09:11:27;;;;;;;1.50;1.40;;;25.00;77.50;;;;;;5039608;28;20522;-74
2022/06/17 09:14:19;;;;;;;1.50;1.40;;;25.00;77.90;;;;;;5043516;28;20459;-74
2022/06/17 09:16:57;;;;;;;1.37;1.20;;;25.10;79.00;;;;;;5045700;28;20536;-74
2022/06/17 09:19:29;;;;;;;1.40;1.30;;;25.10;75.80;;;;;;5048874;28;20531;-74
2022/06/17 09:22:03;;;;;;;1.80;1.40;;;25.20;75.70;;;;;;5046544;28;20471;-74
2022/06/17 09:24:41;;;;;;;1.50;1.40;;;25.30;77.80;;;;;;5048410;28;20467;-74
2022/06/17 09:27:14;;;;;;;1.73;1.40;;;25.30;79.30;;;;;;5049305;28;20462;-74
2022/06/17 09:29:54;;;;;;;2.00;1.30;;;25.30;78.20;;;;;;5057646;28;21033;-73
2022/06/17 09:32:27;;;;;;;1.90;1.50;;;25.30;80.20;;;;;;5030236;28;20476;-74
2022/06/17 09:35:04;;;;;;;3.53;1.30;;;25.30;80.90;;;;;;5048049;28;20537;-74
2022/06/17 09:37:37;;;;;;;1.73;1.40;;;25.30;83.10;;;;;;5050209;28;20534;-74
2022/06/17 09:40:13;;;;;;;1.30;1.20;;;25.30;80.20;;;;;;5045391;28;20447;-75
2022/06/17 09:42:45;;;;;;;3.17;2.10;;;25.30;79.10;;;;;;5042213;28;20463;-74
2022/06/17 09:45:17;;;;;;;1.57;1.47;;;25.30;78.20;;;;;;5037082;28;21251;-74
2022/06/17 09:47:48;;;;;;;1.77;1.53;;;25.40;76.20;;;;;;5042348;28;20464;-74
2022/06/17 09:50:21;;;;;;;1.47;1.33;;;25.50;76.40;;;;;;5048278;28;21189;-75
2022/06/17 09:52:54;;;;;;;3.10;1.50;;;25.50;79.40;;;;;;5044699;28;20486;-74
2022/06/17 09:55:29;;;;;;;1.80;1.70;;;25.50;78.60;;;;;;5040455;28;20484;-75
2022/06/17 09:58:02;;;;;;;2.33;1.47;;;25.50;79.70;;;;;;5039465;28;20538;-75
2022/06/17 10:00:39;;;;;;;1.60;1.50;;;25.50;80.70;;;;;;5048621;28;20463;-74
2022/06/17 10:03:22;;;;;;;1.60;1.50;;;25.60;82.30;;;;;;5048432;28;20455;-74
2022/06/17 10:06:06;;;;;;;21.80;4.97;;;25.60;83.10;;;;;;5046649;28;20494;-76
2022/06/17 10:08:48;;;;;;;7.00;2.70;;;25.70;82.90;;;;;;5042312;28;20459;-74
2022/06/17 10:11:24;;;;;;;2.40;1.90;;;25.70;81.80;;;;;;5044583;28;20459;-74
2022/06/17 10:14:02;;;;;;;2.27;1.70;;;25.70;82.70;;;;;;5041988;28;20466;-74
2022/06/17 10:19:32;;;;;;;1.97;1.57;;;25.70;83.60;;;;;;5043276;28;20525;-74
2022/06/17 10:22:14;;;;;;;1.70;1.60;;;25.80;81.70;;;;;;5037356;28;20991;-74
2022/06/17 10:24:57;;;;;;;1.63;1.40;;;25.80;82.70;;;;;;5042110;28;20514;-75
2022/06/17 10:27:41;;;;;;;1.43;1.33;;;25.80;82.30;;;;;;5040234;28;20459;-75
2022/06/17 10:30:23;;;;;;;1.70;1.60;;;25.80;84.50;;;;;;5038296;28;20451;-76
2022/06/17 10:32:54;;;;;;;2.20;1.50;;;25.80;88.50;;;;;;5044853;28;20590;-75
2022/06/17 10:35:30;;;;;;;8.30;1.70;;;25.90;84.20;;;;;;5036135;28;20472;-76
2022/06/17 10:38:01;;;;;;;1.50;1.40;;;25.90;85.70;;;;;;5043356;28;20560;-81
2022/06/17 10:40:34;;;;;;;1.97;1.40;;;26.00;83.60;;;;;;5040102;28;20558;-81
2022/06/17 10:43:06;;;;;;;1.37;1.27;;;26.00;80.90;;;;;;5043736;28;20448;-80
2022/06/17 10:45:35;;;;;;;1.60;1.50;;;26.20;82.10;;;;;;5038266;28;20488;-79
2022/06/17 10:48:08;;;;;;;2.50;1.50;;;26.20;81.00;;;;;;5044790;28;20463;-79
2022/06/17 10:50:36;;;;;;;1.70;1.60;;;26.30;83.90;;;;;;5041224;28;20459;-81
2022/06/17 10:53:11;;;;;;;1.33;1.23;;;26.40;85.30;;;;;;5041019;28;20447;-80
2022/06/17 10:55:42;;;;;;;1.90;1.80;;;26.40;84.60;;;;;;5036598;28;20460;-80
2022/06/17 10:58:18;;;;;;;1.60;1.50;;;26.40;82.80;;;;;;5043977;28;20451;-80
2022/06/17 11:00:54;;;;;;;2.80;1.60;;;26.40;82.90;;;;;;5043890;28;20981;-81
2022/06/17 11:03:26;;;;;;;1.50;1.40;;;26.40;80.80;;;;;;5043093;28;20452;-81
2022/06/17 11:05:59;;;;;;;2.87;1.70;;;26.30;80.70;;;;;;5032994;28;20545;-81
2022/06/17 11:08:32;;;;;;;1.43;1.33;;;26.40;80.00;;;;;;5037641;28;20485;-82
2022/06/17 11:13:47;;;;;;;1.20;1.10;;;26.30;79.30;;;;;;5042146;28;20456;-80
2022/06/17 11:16:22;;;;;;;2.70;1.57;;;26.30;78.20;;;;;;5041315;28;20474;-80
2022/06/17 11:18:56;;;;;;;2.00;1.90;;;26.30;78.20;;;;;;5043883;28;20460;-79
2022/06/17 11:21:29;;;;;;;1.83;1.40;;;26.40;82.60;;;;;;5045919;28;20471;-80
2022/06/17 11:23:59;;;;;;;2.53;1.87;;;26.40;79.70;;;;;;5044103;28;20467;-78
2022/06/17 11:26:31;;;;;;;1.30;1.30;;;26.50;78.80;;;;;;5038694;28;20498;-78
2022/06/17 11:29:05;;;;;;;1.83;1.40;;;26.50;96.40;;;;;;5040935;28;20474;-78
2022/06/17 11:31:38;;;;;;;3.30;1.90;;;26.50;84.30;;;;;;5039993;28;21754;-79
2022/06/17 11:34:17;;;;;;;2.27;1.50;;;26.50;88.30;;;;;;5043153;28;20505;-79
2022/06/17 11:37:12;;;;;;;3.10;1.27;;;26.60;87.20;;;;;;5058097;28;20475;-78
2022/06/17 11:39:41;;;;;;;1.40;1.30;;;26.60;88.90;;;;;;5038589;28;20458;-80
2022/06/17 11:42:17;;;;;;;1.93;1.47;;;26.70;98.70;;;;;;5038923;28;20463;-79
2022/06/17 11:44:57;;;;;;;1.80;1.43;;;26.60;86.50;;;;;;5037542;28;20468;-78
2022/06/17 11:47:28;;;;;;;1.50;1.40;;;26.60;85.20;;;;;;5038855;28;20484;-79
2022/06/17 11:50:13;;;;;;;2.80;1.87;;;26.70;87.20;;;;;;5043706;28;20456;-79
2022/06/17 11:52:42;;;;;;;3.63;1.40;;;26.70;84.90;;;;;;5044977;28;20443;-79
2022/06/17 11:55:11;;;;;;;3.40;1.80;;;26.70;89.70;;;;;;5042914;28;21280;-79
2022/06/17 11:57:59;;;;;;;1.60;1.50;;;26.70;89.10;;;;;;5045412;28;20466;-79
2022/06/17 12:00:46;;;;;;;1.70;1.60;;;26.70;91.20;;;;;;5040992;28;20467;-78
2022/06/17 12:03:16;;;;;;;2.03;1.27;;;26.70;90.60;;;;;;5040908;28;20467;-80
2022/06/17 12:05:57;;;;;;;1.30;1.20;;;26.70;86.30;;;;;;5036466;28;20483;-78
2022/06/17 12:08:29;;;;;;;1.70;1.60;;;26.80;87.80;;;;;;5037832;28;21045;-77
2022/06/17 12:11:02;;;;;;;1.40;1.30;;;26.90;87.60;;;;;;5042517;28;20506;-78
2022/06/17 12:13:35;;;;;;;1.53;1.43;;;27.00;89.10;;;;;;5032670;28;20463;-79
2022/06/17 12:16:13;;;;;;;1.43;1.33;;;27.00;82.90;;;;;;5035705;28;20486;-79
2022/06/17 12:18:45;;;;;;;2.50;1.83;;;27.10;84.00;;;;;;5042219;28;20447;-79
2022/06/17 12:21:28;;;;;;;1.30;1.20;;;27.10;84.70;;;;;;5037864;28;20463;-78
2022/06/17 12:24:05;;;;;;;1.40;1.30;;;27.20;82.60;;;;;;5041502;28;20463;-79
2022/06/17 12:26:37;;;;;;;1.50;1.40;;;27.20;83.10;;;;;;5040702;28;20474;-78
2022/06/17 12:29:11;;;;;;;1.50;1.40;;;27.20;84.90;;;;;;5037608;28;20456;-79
2022/06/17 12:31:49;;;;;;;1.40;1.30;;;27.30;84.60;;;;;;5048254;28;20474;-79
2022/06/17 12:34:27;;;;;;;1.60;1.40;;;27.30;88.30;;;;;;5042372;28;20478;-79
2022/06/17 12:37:00;;;;;;;1.77;1.67;;;27.40;86.90;;;;;;5047377;28;21033;-80
2022/06/17 12:39:35;;;;;;;1.40;1.30;;;27.40;90.30;;;;;;5052114;28;21018;-78
2022/06/17 12:42:07;;;;;;;3.30;1.57;;;27.50;90.00;;;;;;5050221;28;21301;-79
2022/06/17 12:44:52;;;;;;;2.80;1.50;;;27.60;90.10;;;;;;5051289;28;20448;-79
2022/06/17 12:47:31;;;;;;;4.50;3.50;;;27.60;91.20;;;;;;5051931;28;20479;-79
2022/06/17 12:53:17;;;;;;;1.97;1.80;;;27.60;89.90;;;;;;5051138;28;20459;-79
2022/06/17 12:56:04;;;;;;;1.47;1.33;;;27.70;88.70;;;;;;5050283;28;20501;-79
2022/06/17 12:59:00;;;;;;;3.00;1.70;;;27.70;88.70;;;;;;5043856;28;20468;-80
2022/06/17 13:01:38;;;;;;;1.47;1.37;;;27.80;88.20;;;;;;5046733;28;20524;-78
2022/06/17 13:04:32;;;;;;;1.50;1.40;;;27.80;88.20;;;;;;5049681;28;20465;-80
2022/06/17 13:07:10;;;;;;;1.43;1.33;;;27.80;98.10;;;;;;5049463;28;20479;-80
2022/06/17 13:09:48;;;;;;;1.80;1.70;;;27.80;90.20;;;;;;5050126;28;20911;-79
2022/06/17 13:12:24;;;;;;;1.97;1.70;;;27.90;88.10;;;;;;5043550;28;20472;-80
2022/06/17 13:15:00;;;;;;;2.67;1.70;;;27.80;89.70;;;;;;5036873;28;20447;-78
2022/06/17 13:17:33;;;;;;;1.73;1.60;;;27.80;86.60;;;;;;5046716;28;20443;-80
2022/06/17 13:20:10;;;;;;;1.50;1.30;;;27.90;89.00;;;;;;5045329;28;20479;-78
2022/06/17 13:22:45;;;;;;;1.40;1.30;;;27.90;90.00;;;;;;5041622;28;20455;-79
2022/06/17 13:25:22;;;;;;;3.47;1.60;;;28.00;91.10;;;;;;5040245;28;20473;-80
2022/06/17 13:27:56;;;;;;;1.60;1.17;;;28.00;90.60;;;;;;5047320;28;21014;-80
2022/06/17 13:30:27;;;;;;;1.50;1.40;;;28.10;91.00;;;;;;5042810;28;20502;-80
2022/06/17 13:33:01;;;;;;;1.50;1.40;;;28.20;90.30;;;;;;5049546;28;20462;-80